^^
Station Historical Data
Daily Summary for June 6, 2017 Units:  Metric    English   Both
« Previous Day
Next Day »
Daily Weekly Monthly Yearly Custom
  High: Low: Average:
Temperature: 30.7 °C 14.4 °C 20.5 °C
Dew Point: 5.3 °C -2.5 °C 0.6 °C
Humidity: 48% 18% 27%
Wind Speed: 41.7km/h 0km/h 12.1km/h
Wind Gust: 53.1km/h - -
Wind- - WNW
Pressure: 1014.4 hPa 1007 hPa -
Precipitation: 0 mm    
Historical Graphs
 
 
Tabular Data for June 6, 2017
Time Temperature Dew Point Pressure Wind Wind Speed Wind Gust Humidity Rainfall Rate (Hourly) solar Conditions
00:03 17.1 °C -1.6 °C 1014.4 hPa Calm     28% 0 mm 0.0 W/m2
00:08 16.7 °C -1.9 °C 1014.4 hPa Calm     28% 0 mm 0.0 W/m2
00:14 16.2 °C -2.3 °C 1014.4 hPa Calm     28% 0 mm 0.0 W/m2
00:20 15.7 °C -2.3 °C 1014.4 hPa Calm     29% 0 mm 0.0 W/m2
00:30 15.3 °C -2.2 °C 1014.4 hPa North 1.4 km/h 8 km/h 30% 0 mm 0.0 W/m2
00:35 15.1 °C -2.4 °C 1014.4 hPa Calm     30% 0 mm 0.0 W/m2
00:40 14.8 °C -2.2 °C 1014.4 hPa North 1.4 km/h 6.4 km/h 31% 0 mm 0.0 W/m2
00:46 14.5 °C -2.4 °C 1014.4 hPa North 6.4 km/h 9.7 km/h 31% 0 mm 0.0 W/m2
00:51 14.4 °C -2.5 °C 1014.4 hPa North 9.7 km/h 9.7 km/h 31% 0 mm 0.0 W/m2
01:01 15 °C -2 °C 1014.1 hPa North 6.4 km/h 9.7 km/h 31% 0 mm 0.0 W/m2
01:11 15.2 °C -1.8 °C 1014.1 hPa Calm   9.7 km/h 31% 0 mm 0.0 W/m2
01:16 15.3 °C -2.2 °C 1014.4 hPa Calm   11.3 km/h 30% 0 mm 0.0 W/m2
01:21 15.5 °C -2 °C 1014.1 hPa Calm   11.3 km/h 30% 0 mm 0.0 W/m2
01:26 15.8 °C -1.7 °C 1014.1 hPa North 1.4 km/h 11.3 km/h 30% 0 mm 0.0 W/m2
01:36 16.3 °C -1.8 °C 1014.1 hPa North 6.4 km/h 12.9 km/h 29% 0 mm 0.0 W/m2
01:41 16.4 °C -1.7 °C 1014.1 hPa North 11.1 km/h 11.3 km/h 29% 0 mm 0.0 W/m2
01:46 16.3 °C -1.8 °C 1014.1 hPa North 9.7 km/h 12.9 km/h 29% 0 mm 0.0 W/m2
01:52 16.2 °C -1.9 °C 1014.1 hPa Calm   12.9 km/h 29% 0 mm 0.0 W/m2
01:57 15.9 °C -1.7 °C 1014.1 hPa North 9.7 km/h 12.9 km/h 30% 0 mm 0.0 W/m2
02:02 15.7 °C -1.8 °C 1013.8 hPa North 9.7 km/h 12.9 km/h 30% 0 mm 0.0 W/m2
02:11 15.6 °C -1.9 °C 1013.8 hPa North 7.9 km/h 9.7 km/h 30% 0 mm 0.0 W/m2
02:17 15.4 °C -2.1 °C 1013.8 hPa North 9.7 km/h 9.7 km/h 30% 0 mm 0.0 W/m2
02:27 15.3 °C -1.7 °C 1013.8 hPa North 6.4 km/h 9.7 km/h 31% 0 mm 0.0 W/m2
02:32 15.3 °C -1.7 °C 1013.8 hPa North 3.2 km/h 8 km/h 31% 0 mm 0.0 W/m2
02:37 15.3 °C -1.7 °C 1013.8 hPa North 7.9 km/h 9.7 km/h 31% 0 mm 0.0 W/m2
02:47 15.2 °C -1.8 °C 1013.4 hPa North 6.4 km/h 12.9 km/h 31% 0 mm 0.0 W/m2
02:52 15.3 °C -1.7 °C 1013.4 hPa North 11.1 km/h 11.3 km/h 31% 0 mm 0.0 W/m2
02:57 16.1 °C -1.5 °C 1013.4 hPa North 17.7 km/h 17.7 km/h 30% 0 mm 0.0 W/m2
03:02 16.6 °C -1.5 °C 1013.4 hPa North 7.9 km/h 14.5 km/h 29% 0 mm 0.0 W/m2
03:07 17.3 °C -1.4 °C 1013.4 hPa North 13 km/h 17.7 km/h 28% 0 mm 0.0 W/m2
03:12 17.1 °C -2.1 °C 1013.4 hPa North 9.7 km/h 17.7 km/h 27% 0 mm 0.0 W/m2
03:17 16.1 °C -1.9 °C 1013.4 hPa North 7.9 km/h 12.9 km/h 29% 0 mm 0.0 W/m2
03:22 15.4 °C -2.1 °C 1013.4 hPa North 7.9 km/h 12.9 km/h 30% 0 mm 0.0 W/m2
03:27 15.1 °C -1.9 °C 1013.4 hPa North 11.1 km/h 14.5 km/h 31% 0 mm 0.0 W/m2
03:32 14.9 °C -1.7 °C 1013.4 hPa North 6.4 km/h 9.7 km/h 32% 0 mm 0.0 W/m2
03:37 14.9 °C -1.7 °C 1013.4 hPa North 7.9 km/h 11.3 km/h 32% 0 mm 0.0 W/m2
03:42 14.9 °C -1.7 °C 1013.4 hPa North 1.4 km/h 14.5 km/h 32% 0 mm 0.0 W/m2
03:47 15.1 °C -1.5 °C 1013.4 hPa North 9.7 km/h 12.9 km/h 32% 0 mm 0.0 W/m2
03:52 15.1 °C -1.5 °C 1013.4 hPa North 11.1 km/h 12.9 km/h 32% 0 mm 0.0 W/m2
03:57 15 °C -1.6 °C 1013.1 hPa North 9.7 km/h 19.3 km/h 32% 0 mm 0.0 W/m2
04:02 15.1 °C -1.5 °C 1013.1 hPa North 7.9 km/h 14.5 km/h 32% 0 mm 0.0 W/m2
04:07 15.2 °C -1.8 °C 1013.1 hPa North 11.1 km/h 12.9 km/h 31% 0 mm 0.0 W/m2
04:17 15.4 °C -1.7 °C 1012.8 hPa North 3.2 km/h 14.5 km/h 31% 0 mm 0.0 W/m2
04:27 15.4 °C -1.7 °C 1012.8 hPa North 3.2 km/h 19.3 km/h 31% 0 mm 0.0 W/m2
04:32 15.7 °C -1.4 °C 1012.8 hPa North 7.9 km/h 14.5 km/h 31% 0 mm 0.0 W/m2
04:37 15.8 °C -1.7 °C 1012.8 hPa North 7.9 km/h 14.5 km/h 30% 0 mm 0.0 W/m2
04:43 16 °C -1.6 °C 1012.8 hPa North 7.9 km/h 11.3 km/h 30% 0 mm 0.0 W/m2
04:48 16 °C -1.6 °C 1012.4 hPa North 7.9 km/h 17.7 km/h 30% 0 mm 0.0 W/m2
04:53 16.2 °C -1.4 °C 1012.4 hPa North 7.9 km/h 12.9 km/h 30% 0 mm 0.0 W/m2
04:58 16.4 °C -1.7 °C 1012.4 hPa North 9.7 km/h 11.3 km/h 29% 0 mm 0.0 W/m2
05:08 16.7 °C -1.4 °C 1012.4 hPa North 7.9 km/h 12.9 km/h 29% 0 mm 0.0 W/m2
05:13 16.5 °C -1.6 °C 1012.4 hPa North 9.7 km/h 11.3 km/h 29% 0 mm 0.0 W/m2
05:18 16.4 °C -1.7 °C 1012.4 hPa North 1.4 km/h 6.4 km/h 29% 0 mm 0.0 W/m2
05:23 16.4 °C -1.7 °C 1012.4 hPa North 6.4 km/h 11.3 km/h 29% 0 mm 0.0 W/m2
05:28 16.6 °C -1.5 °C 1012.4 hPa North 6.4 km/h 12.9 km/h 29% 0 mm 0.0 W/m2
05:38 16.4 °C -1.7 °C 1012.4 hPa Calm     29% 0 mm 0.0 W/m2
05:43 16.1 °C -1.5 °C 1012.4 hPa North 6.4 km/h 6.4 km/h 30% 0 mm 0.0 W/m2
05:48 15.7 °C -1.4 °C 1012.4 hPa North 6.4 km/h 9.7 km/h 31% 0 mm 0.0 W/m2
05:53 15.6 °C -1.5 °C 1012.4 hPa Calm     31% 0 mm 0.0 W/m2
05:58 15.6 °C -1.5 °C 1012.4 hPa North 3.2 km/h 9.7 km/h 31% 0 mm 0.0 W/m2
06:03 16.6 °C -1.1 °C 1012.4 hPa North 9.7 km/h 12.9 km/h 30% 0 mm 0.0 W/m2
06:13 18.2 °C -1.1 °C 1012.4 hPa North 14.3 km/h 17.7 km/h 27% 0 mm 0.0 W/m2
06:23 18.4 °C -0.9 °C 1012.4 hPa North 7.9 km/h 12.9 km/h 27% 0 mm 0.0 W/m2
06:28 18.3 °C -1 °C 1012.8 hPa North 1.4 km/h 9.7 km/h 27% 0 mm 0.0 W/m2
06:33 18.1 °C -1.2 °C 1012.4 hPa North 7.9 km/h 9.7 km/h 27% 0 mm 0.0 W/m2
06:38 17.8 °C -1 °C 1012.4 hPa North 6.4 km/h 9.7 km/h 28% 0 mm 7.0 W/m2
06:43 17.7 °C -1 °C 1012.4 hPa Calm   9.7 km/h 28% 0 mm 9.0 W/m2
06:48 17.6 °C -1.1 °C 1012.4 hPa North 3.2 km/h 9.7 km/h 28% 0 mm 12.0 W/m2
06:53 17.4 °C -1.3 °C 1012.4 hPa North 1.4 km/h 8 km/h 28% 0 mm 14.0 W/m2
07:11 17.8 °C -1 °C 1012.4 hPa Calm   8 km/h 28% 0 mm 21.0 W/m2
07:29 18 °C -0.8 °C 1012.4 hPa North 1.4 km/h 9.7 km/h 28% 0 mm 81.0 W/m2
07:44 18.6 °C -0.3 °C 1012.8 hPa North 1.4 km/h 9.7 km/h 28% 0 mm 134.0 W/m2
07:59 19.1 °C -0.3 °C 1012.8 hPa Calm   11.3 km/h 27% 0 mm 188.0 W/m2
08:13 19.7 °C -0.3 °C 1012.8 hPa North 7.9 km/h 9.7 km/h 26% 0 mm 234.0 W/m2
08:23 20 °C -0.1 °C 1012.8 hPa North 7.9 km/h 14.5 km/h 26% 0 mm 264.0 W/m2
08:33 20.3 °C -0.4 °C 1012.8 hPa Calm   12.9 km/h 25% 0 mm 288.0 W/m2
08:45 20.3 °C -0.4 °C 1012.8 hPa North 17.7 km/h 19.3 km/h 25% 0 mm 316.0 W/m2
09:01 20.8 °C 0 °C 1012.4 hPa North 11.1 km/h 22.5 km/h 25% 0 mm 353.0 W/m2
09:15 21.3 °C 0.5 °C 1012.1 hPa North 14.3 km/h 20.9 km/h 25% 0 mm 387.0 W/m2
09:29 22.2 °C 0.7 °C 1012.8 hPa North 14.3 km/h 19.3 km/h 24% 0 mm 425.0 W/m2
09:39 22.3 °C 0.8 °C 1012.4 hPa North 14.3 km/h 29 km/h 24% 0 mm 443.0 W/m2
09:47 22.6 °C 1 °C 1012.4 hPa North 20.9 km/h 33.8 km/h 24% 0 mm 459.0 W/m2
09:56 22.9 °C 0.7 °C 1012.1 hPa North 9.7 km/h 29 km/h 23% 0 mm 482.0 W/m2
10:01 23.2 °C 0.9 °C 1012.1 hPa North 20.9 km/h 25.7 km/h 23% 0 mm 490.0 W/m2
10:10 23.5 °C 0.6 °C 1012.1 hPa North 14.3 km/h 29 km/h 22% 0 mm 504.0 W/m2
10:20 23.7 °C 0.7 °C 1011.7 hPa North 9.7 km/h 24.1 km/h 22% 0 mm 520.0 W/m2
10:25 23.7 °C 0.7 °C 1011.7 hPa North 6.4 km/h 22.5 km/h 22% 0 mm 529.0 W/m2
10:36 23.8 °C 1.4 °C 1011.7 hPa North 17.7 km/h 24.1 km/h 23% 0 mm 540.0 W/m2
10:45 24.1 °C 1.1 °C 1011.4 hPa North 3.2 km/h 22.5 km/h 22% 0 mm 552.0 W/m2
10:50 24.4 °C 1.3 °C 1011.4 hPa North 20.9 km/h 25.7 km/h 22% 0 mm 555.0 W/m2
10:55 24.5 °C 1.4 °C 1011.1 hPa North 19.5 km/h 30.6 km/h 22% 0 mm 559.0 W/m2
11:05 24.7 °C 1.6 °C 1010.7 hPa North 24.1 km/h 27.4 km/h 22% 0 mm 564.0 W/m2
11:11 24.9 °C 1.1 °C 1010.7 hPa North 19.5 km/h 20.9 km/h 21% 0 mm 571.0 W/m2
11:21 25.3 °C 1.4 °C 1010.7 hPa North 6.4 km/h 19.3 km/h 21% 0 mm 573.0 W/m2
11:31 25.8 °C 1.8 °C 1010.4 hPa North 19.5 km/h 24.1 km/h 21% 0 mm 575.0 W/m2
11:36 26.1 °C 2.1 °C 1010.4 hPa North 1.4 km/h 24.1 km/h 21% 0 mm 580.0 W/m2
11:42 26.3 °C 1.5 °C 1010 hPa North 17.7 km/h 17.7 km/h 20% 0 mm 578.0 W/m2
11:48 26.4 °C 1.6 °C 1010 hPa North 6.4 km/h 22.5 km/h 20% 0 mm 577.0 W/m2
11:59 26.7 °C 1.9 °C 1010 hPa North 3.2 km/h 19.3 km/h 20% 0 mm 578.0 W/m2
12:09 27.2 °C 2.3 °C 1009.7 hPa North 13 km/h 17.7 km/h 20% 0 mm 577.0 W/m2
12:20 27.6 °C 2.6 °C 1009.4 hPa North 19.5 km/h 22.5 km/h 20% 0 mm 575.0 W/m2
12:30 27.8 °C 2.8 °C 1009 hPa North 19.5 km/h 22.5 km/h 20% 0 mm 568.0 W/m2
12:58 28.9 °C 3 °C 1008.4 hPa North 3.2 km/h 17.7 km/h 19% 0 mm 536.0 W/m2
13:06 29 °C 3 °C 1008 hPa North 11.1 km/h 25.7 km/h 19% 0 mm 526.0 W/m2
13:12 29.1 °C 3.1 °C 1008 hPa North 16.3 km/h 16.3 km/h 19% 0 mm 524.0 W/m2
13:21 29.6 °C 3.5 °C 1007.7 hPa North 19.5 km/h 24.1 km/h 19% 0 mm 533.0 W/m2
13:26 29.7 °C 3.6 °C 1007.7 hPa North 7.9 km/h 37 km/h 19% 0 mm 524.0 W/m2
13:36 29.9 °C 3.8 °C 1007.3 hPa NW 13 km/h 29 km/h 19% 0 mm 506.0 W/m2
13:46 30.3 °C 4.1 °C 1007.3 hPa NNW 11.1 km/h 29 km/h 19% 0 mm 490.0 W/m2
13:56 30.6 °C 4.3 °C 1007.3 hPa NW 24.1 km/h 35.4 km/h 19% 0 mm 515.0 W/m2
14:01 30.4 °C 3.4 °C 1007 hPa WNW 24.1 km/h 48.3 km/h 18% 0 mm 476.0 W/m2
14:11 30.7 °C 3.7 °C 1007 hPa NW 20.9 km/h 29 km/h 18% 0 mm 429.0 W/m2
14:16 30.7 °C 3.7 °C 1007 hPa NW 33.8 km/h 38.6 km/h 18% 0 mm 415.0 W/m2
14:26 30.2 °C 3.3 °C 1007 hPa NW 19.5 km/h 48.3 km/h 18% 0 mm 121.0 W/m2
14:36 30.2 °C 3.3 °C 1007 hPa WNW 35.2 km/h 46.7 km/h 18% 0 mm 334.0 W/m2
14:42 30.2 °C 3.3 °C 1007 hPa NW 38.5 km/h 45.1 km/h 18% 0 mm 301.0 W/m2
14:49 30.3 °C 3.3 °C 1007.3 hPa WNW 32 km/h 35.4 km/h 18% 0 mm 287.0 W/m2
14:57 30.1 °C 3.2 °C 1007 hPa WNW 27.4 km/h 35.4 km/h 18% 0 mm 248.0 W/m2
15:06 30.2 °C 3.3 °C 1007 hPa West 27.4 km/h 38.6 km/h 18% 0 mm 239.0 W/m2
15:19 30 °C 3.9 °C 1007 hPa West 27.4 km/h 40.2 km/h 19% 0 mm 213.0 W/m2
15:32 29.7 °C 3.6 °C 1007 hPa WNW 24.1 km/h 40.2 km/h 19% 0 mm 176.0 W/m2
16:01 28.9 °C 3.7 °C 1007.3 hPa WNW 37 km/h 38.6 km/h 20% 0 mm 91.0 W/m2
16:09 28.6 °C 3.4 °C 1007.3 hPa WNW 27.4 km/h 37 km/h 20% 0 mm 76.0 W/m2
16:16 28.3 °C 3.2 °C 1007.7 hPa West 24.1 km/h 38.6 km/h 20% 0 mm 58.0 W/m2
16:21 28.2 °C 3.1 °C 1007.7 hPa WNW 19.5 km/h 38.6 km/h 20% 0 mm 51.0 W/m2
16:36 27.9 °C 2.9 °C 1007.7 hPa NW 16.3 km/h 35.4 km/h 20% 0 mm 26.0 W/m2
16:42 27.8 °C 2.8 °C 1008 hPa WNW 28.8 km/h 40.2 km/h 20% 0 mm 21.0 W/m2
16:51 27.6 °C 3.3 °C 1008 hPa NW 13 km/h 32.2 km/h 21% 0 mm 11.0 W/m2
16:58 27.5 °C 3.2 °C 1008 hPa WNW 19.5 km/h 38.6 km/h 21% 0 mm 7.0 W/m2
17:05 27.3 °C 3.1 °C 1008.4 hPa WNW 24.1 km/h 32.2 km/h 21% 0 mm 0.0 W/m2
17:57 26.3 °C 2.9 °C 1009 hPa WNW 41.7 km/h 53.1 km/h 22% 0 mm 0.0 W/m2
18:11 25.8 °C 3.7 °C 1009.4 hPa NW 24.1 km/h 37 km/h 24% 0 mm 0.0 W/m2
18:38 25 °C 4.2 °C 1009.4 hPa NW 19.5 km/h 29 km/h 26% 0 mm 0.0 W/m2
19:21 23.9 °C 5.3 °C 1010 hPa NW 24.1 km/h 29 km/h 30% 0 mm 0.0 W/m2
19:47 23.2 °C 5.1 °C 1010 hPa WNW 20.9 km/h 24.1 km/h 31% 0 mm 0.0 W/m2
20:02 22.6 °C 5.1 °C 1010.4 hPa NW 24.1 km/h 33.8 km/h 32% 0 mm 0.0 W/m2
20:32 22 °C 4.5 °C 1010.7 hPa NW 32 km/h 33.8 km/h 32% 0 mm 0.0 W/m2
20:52 21.8 °C 4.4 °C 1011.1 hPa WNW 19.5 km/h 32.2 km/h 32% 0 mm 0.0 W/m2
21:16 20.5 °C 3.2 °C 1011.7 hPa West 19.5 km/h 32.2 km/h 32% 0 mm 0.0 W/m2
21:35 19.7 °C 2.1 °C 1012.1 hPa West 19.5 km/h 22.5 km/h 31% 0 mm 0.0 W/m2
21:43 19.4 °C 1.8 °C 1012.4 hPa WNW 11.1 km/h 20.9 km/h 31% 0 mm 0.0 W/m2
21:48 19.3 °C 1.7 °C 1012.4 hPa WNW 17.7 km/h 22.5 km/h 31% 0 mm 0.0 W/m2
21:53 19.2 °C 1.7 °C 1012.4 hPa WNW 11.1 km/h 12.9 km/h 31% 0 mm 0.0 W/m2
21:58 19.1 °C 1.6 °C 1012.4 hPa WNW 7.9 km/h 17.7 km/h 31% 0 mm 0.0 W/m2
22:03 19 °C 1.5 °C 1012.4 hPa WNW 16.3 km/h 16.3 km/h 31% 0 mm 0.0 W/m2
22:13 18.9 °C 1.4 °C 1012.4 hPa WNW 9.7 km/h 17.7 km/h 31% 0 mm 0.0 W/m2
22:23 18.8 °C 1.3 °C 1012.4 hPa WNW 9.7 km/h 19.3 km/h 31% 0 mm 0.0 W/m2
22:28 18.7 °C 1.2 °C 1012.4 hPa WNW 13 km/h 19.3 km/h 31% 0 mm 0.0 W/m2
22:38 18.5 °C 1 °C 1012.8 hPa West 20.9 km/h 30.6 km/h 31% 0 mm 0.0 W/m2
22:43 18.4 °C 1 °C 1012.8 hPa WNW 16.3 km/h 22.5 km/h 31% 0 mm 0.0 W/m2
22:48 18.2 °C 1.2 °C 1013.1 hPa West 9.7 km/h 16.1 km/h 32% 0 mm 0.0 W/m2
22:53 18 °C 1.5 °C 1012.8 hPa West 11.1 km/h 16.1 km/h 33% 0 mm 0.0 W/m2
22:58 17.7 °C 2 °C 1012.8 hPa West 11.1 km/h 19.3 km/h 35% 0 mm 0.0 W/m2
23:08 17.2 °C 2.4 °C 1013.1 hPa West 19.5 km/h 22.5 km/h 37% 0 mm 0.0 W/m2
23:18 16.6 °C 2.9 °C 1013.1 hPa WSW 20.9 km/h 25.7 km/h 40% 0 mm 0.0 W/m2
23:28 16.2 °C 3.6 °C 1013.1 hPa West 14.3 km/h 19.3 km/h 43% 0 mm 0.0 W/m2
23:38 16 °C 4.4 °C 1013.4 hPa WSW 14.3 km/h 17.7 km/h 46% 0 mm 0.0 W/m2
23:49 15.9 °C 4.3 °C 1013.4 hPa Calm   8 km/h 46% 0 mm 0.0 W/m2
23:59 15.8 °C 4.8 °C 1013.4 hPa WSW 7.9 km/h 11.3 km/h 48% 0 mm 0.0 W/m2
Canyon Roadhouse, Fishriver Canyon, Namibia
Compliments of Weather Underground - 2.5 mb